createdAt,value
2022-10-08T11:44:20.961Z,1.05
2022-10-08T11:47:36.445Z,1.40
2022-10-08T11:50:24.791Z,1.35
2022-10-08T11:53:19.155Z,1.48
2022-10-08T11:56:10.764Z,1.05
2022-10-08T11:58:59.058Z,1.48
2022-10-08T12:01:54.805Z,1.10
2022-10-08T12:04:42.271Z,1.38
2022-10-08T12:07:32.520Z,1.42
2022-10-08T12:10:34.972Z,1.30
2022-10-08T12:13:30.047Z,1.67
2022-10-08T12:16:17.783Z,1.40
2022-10-08T12:19:08.226Z,1.45
2022-10-08T12:21:55.211Z,0.98
2022-10-08T12:24:57.162Z,1.10
2022-10-08T12:27:46.510Z,1.00
2022-10-08T12:30:48.470Z,0.82
2022-10-08T12:33:35.376Z,0.75
2022-10-08T12:36:30.400Z,1.10
2022-10-08T12:39:19.993Z,0.90
2022-10-08T12:42:14.307Z,1.10
2022-10-08T12:45:06.473Z,0.90
2022-10-08T12:47:59.624Z,1.40
2022-10-08T12:50:53.919Z,1.33
2022-10-08T12:53:45.910Z,1.38
2022-10-08T12:56:33.179Z,0.90
2022-10-08T12:59:21.708Z,1.00
2022-10-08T13:02:23.714Z,1.42
2022-10-08T13:05:25.274Z,0.90
2022-10-08T13:08:32.913Z,1.85
2022-10-08T13:11:21.303Z,1.45
2022-10-08T13:14:23.736Z,1.73
2022-10-08T13:17:28.518Z,2.20
2022-10-08T13:20:18.558Z,1.23
2022-10-08T13:23:25.283Z,1.17
2022-10-08T13:26:26.939Z,1.25
2022-10-08T13:29:29.930Z,1.38
2022-10-08T13:32:20.417Z,1.02
2022-10-08T13:35:07.967Z,1.75
2022-10-08T13:37:55.334Z,1.13
2022-10-08T13:40:42.654Z,1.17
2022-10-08T13:43:30.439Z,1.58
2022-10-08T13:46:18.894Z,1.77
2022-10-08T13:49:05.992Z,1.42
2022-10-08T13:51:56.759Z,1.63
2022-10-08T13:54:43.985Z,1.88
2022-10-08T13:57:31.757Z,1.40
2022-10-08T14:00:19.324Z,1.58
2022-10-08T14:03:07.871Z,1.48
2022-10-08T14:05:55.061Z,1.15
2022-10-08T14:08:42.010Z,1.50
2022-10-08T14:11:29.005Z,1.17
2022-10-08T14:14:16.791Z,1.10
2022-10-08T14:17:04.031Z,1.58
2022-10-08T14:19:52.611Z,1.05
2022-10-08T14:22:39.791Z,1.35
2022-10-08T14:25:28.727Z,1.20
2022-10-08T14:28:16.287Z,1.23
2022-10-08T14:33:50.162Z,1.00
2022-10-08T14:36:40.156Z,1.33
2022-10-08T14:39:27.378Z,1.17
2022-10-08T14:42:14.466Z,1.30
2022-10-08T14:45:01.851Z,1.13
2022-10-08T14:47:49.106Z,1.20
2022-10-08T14:50:36.382Z,1.38
2022-10-08T14:53:24.891Z,1.38
2022-10-08T14:56:12.905Z,1.52
2022-10-08T14:59:00.945Z,1.63
2022-10-08T15:01:48.401Z,1.80
2022-10-08T15:07:22.248Z,1.52
2022-10-08T15:10:11.161Z,2.17
2022-10-08T15:12:58.168Z,1.52
2022-10-08T15:18:32.848Z,2.67
2022-10-08T15:24:07.497Z,1.98
2022-10-08T15:26:55.986Z,2.38
2022-10-08T15:29:46.092Z,2.38
2022-10-08T15:32:33.915Z,3.33
2022-10-08T15:35:20.804Z,2.38
2022-10-08T15:38:07.864Z,2.30
2022-10-08T15:41:02.744Z,2.60
2022-10-08T15:43:51.257Z,4.53
2022-10-08T15:46:38.761Z,3.47
2022-10-08T15:49:31.032Z,2.45
2022-10-08T15:52:18.974Z,2.08
2022-10-08T15:55:06.130Z,2.78
2022-10-08T15:57:53.350Z,2.40
2022-10-08T16:00:41.909Z,3.65
2022-10-08T16:03:29.272Z,3.20
2022-10-08T16:06:17.404Z,2.55
2022-10-08T16:09:05.080Z,4.22
2022-10-08T16:14:39.082Z,2.38
2022-10-08T16:17:28.260Z,2.58
2022-10-08T16:20:15.715Z,3.90
2022-10-08T16:23:02.930Z,2.53
2022-10-08T16:25:53.021Z,2.45
2022-10-08T16:28:41.348Z,3.03
2022-10-08T16:31:28.965Z,2.78
2022-10-08T16:34:18.188Z,2.00
2022-10-08T16:37:05.529Z,2.13
2022-10-08T16:39:53.002Z,1.73
2022-10-08T16:42:40.117Z,1.90
2022-10-08T16:45:27.071Z,1.83
2022-10-08T16:48:14.305Z,1.80
2022-10-08T16:51:05.502Z,2.70
2022-10-08T16:53:53.655Z,3.15
2022-10-08T16:56:42.090Z,3.03
2022-10-08T16:59:30.322Z,2.50
2022-10-08T17:02:18.427Z,3.05
2022-10-08T17:05:09.068Z,2.42
2022-10-08T17:07:57.912Z,1.85
2022-10-08T17:10:45.004Z,2.20
2022-10-08T17:13:33.139Z,3.05
2022-10-08T17:16:21.998Z,2.53
2022-10-08T17:19:09.297Z,2.35
2022-10-08T17:21:56.345Z,2.00
2022-10-08T17:24:44.694Z,2.78
2022-10-08T17:27:31.615Z,2.17
2022-10-08T17:30:18.638Z,2.00
2022-10-08T17:33:05.946Z,2.30
2022-10-08T17:36:01.462Z,2.17
2022-10-08T17:38:49.540Z,2.28
2022-10-08T17:41:38.723Z,2.30
2022-10-08T17:44:25.733Z,2.72
2022-10-08T17:47:13.617Z,2.35
2022-10-08T17:50:00.668Z,3.40
2022-10-08T17:52:48.115Z,2.47
2022-10-08T17:55:35.439Z,2.70
2022-10-08T17:58:24.424Z,2.42
2022-10-08T18:01:13.077Z,2.65
2022-10-08T18:04:00.858Z,2.85
2022-10-08T18:06:48.852Z,2.35
2022-10-08T18:09:36.105Z,2.65
2022-10-08T18:12:23.135Z,3.00
2022-10-08T18:15:14.847Z,2.35
2022-10-08T18:18:04.246Z,2.42
2022-10-08T18:20:55.572Z,2.33
2022-10-08T18:23:46.672Z,2.95
2022-10-08T18:26:36.723Z,2.22
2022-10-08T18:29:24.070Z,2.13
2022-10-08T18:32:12.596Z,2.60
2022-10-08T18:34:59.567Z,2.30
2022-10-08T18:37:48.027Z,2.25
2022-10-08T18:40:35.183Z,2.95
2022-10-08T18:43:22.193Z,2.70
2022-10-08T18:46:09.363Z,2.40
2022-10-08T18:48:58.249Z,2.50
2022-10-08T18:51:45.579Z,2.35
2022-10-08T18:54:32.897Z,2.03
2022-10-08T18:57:22.102Z,2.60
2022-10-08T19:00:10.291Z,2.00
2022-10-08T19:02:58.400Z,2.15
2022-10-08T19:05:47.231Z,2.22
2022-10-08T19:08:34.186Z,2.45
2022-10-08T19:11:23.109Z,2.28
2022-10-08T19:14:12.192Z,1.40
2022-10-08T19:17:00.293Z,2.13
2022-10-08T19:19:48.024Z,2.15
2022-10-08T19:25:23.808Z,2.33
2022-10-08T19:28:10.814Z,2.17
2022-10-08T19:30:57.777Z,2.95
2022-10-08T19:33:45.204Z,1.60
2022-10-08T19:36:33.238Z,2.40
2022-10-08T19:39:22.092Z,1.85
2022-10-08T19:42:10.524Z,2.22
2022-10-08T19:44:57.731Z,2.28
2022-10-08T19:47:44.891Z,1.80
2022-10-08T19:50:32.011Z,2.05
2022-10-08T19:53:19.425Z,1.80
2022-10-08T19:56:08.282Z,2.03
2022-10-08T19:58:57.124Z,2.05
2022-10-08T20:01:44.819Z,2.05
2022-10-08T20:04:32.381Z,1.98
2022-10-08T20:07:19.810Z,1.85
2022-10-08T20:10:07.146Z,2.10
2022-10-08T20:12:54.840Z,2.42
2022-10-08T20:15:46.460Z,2.33
2022-10-08T20:18:36.430Z,1.90
2022-10-08T20:21:24.226Z,2.38
2022-10-08T20:24:11.526Z,1.75
2022-10-08T20:26:58.695Z,1.63
2022-10-08T20:29:45.815Z,2.05
2022-10-08T20:32:35.699Z,2.47
2022-10-08T20:35:22.599Z,1.88
2022-10-08T20:38:09.701Z,2.03
2022-10-08T20:40:56.760Z,1.85
2022-10-08T20:43:43.890Z,2.13
2022-10-08T20:46:31.045Z,2.10
2022-10-08T20:52:06.733Z,2.05
2022-10-08T20:54:53.941Z,1.85
2022-10-08T20:57:40.952Z,2.13
2022-10-08T21:00:28.357Z,2.28
2022-10-08T21:03:15.606Z,2.22
2022-10-08T21:06:02.922Z,1.95
2022-10-08T21:08:52.410Z,2.38
2022-10-08T21:11:40.333Z,2.00
2022-10-08T21:17:14.484Z,2.28
2022-10-08T21:20:06.008Z,3.03
2022-10-08T21:22:53.368Z,2.33
2022-10-08T21:25:41.917Z,2.13
2022-10-08T21:28:29.473Z,2.50
2022-10-08T21:31:17.882Z,2.10
2022-10-08T21:34:05.652Z,2.25
2022-10-08T21:36:53.353Z,1.67
2022-10-08T21:39:40.262Z,1.65
2022-10-08T21:42:28.662Z,2.42
2022-10-08T21:45:15.780Z,2.15
2022-10-08T21:48:02.695Z,1.75
2022-10-08T21:50:56.912Z,1.90
2022-10-08T21:53:46.767Z,1.70
2022-10-08T21:56:35.076Z,1.95
2022-10-08T21:59:23.603Z,1.67
2022-10-08T22:02:11.077Z,1.83
2022-10-08T22:07:45.483Z,1.45
2022-10-08T22:10:32.794Z,1.80
2022-10-08T22:13:20.790Z,1.90
2022-10-08T22:16:09.719Z,1.75
2022-10-08T22:18:57.070Z,1.67
2022-10-08T22:21:45.346Z,2.00
2022-10-08T22:24:36.428Z,2.00
2022-10-08T22:27:23.496Z,2.00
2022-10-08T22:30:11.230Z,2.30
2022-10-08T22:33:00.086Z,1.70
2022-10-08T22:35:47.485Z,1.60
2022-10-08T22:38:35.763Z,1.65
2022-10-08T22:41:23.594Z,1.50
2022-10-08T22:44:10.576Z,1.83
2022-10-08T22:46:57.895Z,2.42
2022-10-08T22:49:46.571Z,2.08
2022-10-08T22:52:33.373Z,1.90
2022-10-08T22:55:20.907Z,2.20
2022-10-08T22:58:08.012Z,2.05
2022-10-08T23:01:01.451Z,2.00
2022-10-08T23:03:48.845Z,1.48
2022-10-08T23:09:24.759Z,1.90
2022-10-08T23:12:12.133Z,2.22
2022-10-08T23:14:59.427Z,2.20
2022-10-08T23:17:46.442Z,1.80
2022-10-08T23:20:33.561Z,2.35
2022-10-08T23:23:20.884Z,2.22
2022-10-08T23:26:09.815Z,1.98
2022-10-08T23:28:58.188Z,1.80
2022-10-08T23:31:45.529Z,2.72
2022-10-08T23:34:33.025Z,2.20
2022-10-08T23:37:20.155Z,2.25
2022-10-08T23:40:07.602Z,2.13
2022-10-08T23:42:56.127Z,2.42
2022-10-08T23:45:43.467Z,2.28
2022-10-08T23:48:30.572Z,2.08
2022-10-08T23:51:18.830Z,2.17
2022-10-08T23:54:06.317Z,2.13
2022-10-08T23:56:53.356Z,2.05
2022-10-08T23:59:41.969Z,2.03
